Parma — V2OZ9 — position and weather

sailwx.info

Track history (hours):
 
Tides and Currents Weather Stations Pressure Air Temp Water Temp Dewpoint Dewpoint Depression Visibility Wind Speed Wind Dir Waves Ship Positions

Parma

Last reported at 2015-Mar-31 00:32 UTC. Time now 2015-Mar-31 06:40 UTC.
Position N 39°23' W 009°44'.

MMSI: 279073176.

Date/timePositionNaut miles runAvg speedWind from/ knotsBaromVisibWave heightAir tempDewpointWater temp
2015-Mar-31 00:32N 39°23' W 009°44'11 8.2
2015-Mar-30 23:09N 39°11' W 009°46'5 8.5
2015-Mar-30 22:32N 39°06' W 009°47'18 8.3
2015-Mar-30 20:25N 38°49' W 009°50'7 8.4
2015-Mar-30 19:32N 38°41' W 009°50'8 8.1
2015-Mar-30 18:29N 38°33' W 009°50'8 8.3
2015-Mar-30 17:33N 38°25' W 009°50'9 8.3
2015-Mar-30 16:28N 38°16' W 009°50'10 8.3
2015-Mar-30 15:16N 38°06' W 009°49'6 8.1
2015-Mar-30 14:33N 38°00' W 009°48'9 7.3
2015-Mar-30 13:18N 37°51' W 009°48'6 7.4
2015-Mar-30 12:33N 37°46' W 009°47'16 7.2
2015-Mar-30 10:23N 37°30' W 009°47'9 7.0
2015-Mar-30 09:06N 37°21' W 009°46'4 6.9
2015-Mar-30 08:33N 37°17' W 009°45'7 6.8
2015-Mar-30 07:33N 37°11' W 009°45'7 6.4
2015-Mar-30 06:31N 37°04' W 009°45'6 6.0
2015-Mar-30 05:31N 36°58' W 009°45'7 6.1
2015-Mar-30 04:24N 36°51' W 009°45'5 6.0
2015-Mar-30 03:33N 36°46' W 009°44'7 6.6
2015-Mar-30 02:33N 36°40' W 009°44'7 6.6
2015-Mar-30 01:33N 36°33' W 009°44'6 6.4
2015-Mar-30 00:33N 36°27' W 009°43'6 6.3
2015-Mar-29 23:33N 36°20' W 009°43'7 6.2
2015-Mar-29 22:21N 36°13' W 009°42'6 6.2
2015-Mar-29 21:22N 36°07' W 009°42'6 6.5
2015-Mar-29 20:29N 36°01' W 009°42'35 7.0
2015-Mar-29 15:32N 35°27' W 009°40'  
2015-Mar-23 22:22N 36°11' W 005°25'0 0.0
2015-Mar-23 08:28N 36°11' W 005°25'0 0.0
2015-Mar-23 07:22N 36°11' W 005°25'0 0.0
2015-Mar-23 05:16N 36°11' W 005°25'0 0.0
2015-Mar-22 23:16N 36°11' W 005°25'0 0.0
2015-Mar-22 22:04N 36°11' W 005°25'0 0.0
2015-Mar-22 20:04N 36°11' W 005°25'0 0.0
2015-Mar-22 18:28N 36°11' W 005°25'0 0.0
2015-Mar-22 08:10N 36°10' W 005°25'5 5.5
2015-Mar-22 07:17N 36°05' W 005°25'0 0.0
2015-Mar-22 06:29N 36°05' W 005°25'0 0.0
2015-Mar-22 05:26N 36°05' W 005°25'0 0.1
2015-Mar-22 04:26N 36°05' W 005°25'0 0.0
2015-Mar-22 03:32N 36°05' W 005°25'0 0.0
2015-Mar-22 02:05N 36°05' W 005°25'0 0.0
2015-Mar-22 01:26N 36°05' W 005°25'0 0.1
2015-Mar-22 00:14N 36°05' W 005°25'0 0.0
2015-Mar-21 19:32N 36°05' W 005°25'0 0.0
2015-Mar-21 18:32N 36°05' W 005°25'0 0.0
2015-Mar-21 15:32N 36°05' W 005°25'0 0.0
2015-Mar-21 08:26N 36°05' W 005°25'0 0.0
2015-Mar-21 06:26N 36°05' W 005°25'0 0.0
2015-Mar-21 05:32N 36°05' W 005°25'  
Track history (hours):
 
Tides and Currents Weather Stations Pressure Air Temp Water Temp Dewpoint Dewpoint Depression Visibility Wind Speed Wind Dir Waves Ship Positions

Parma

Last reported at 2015-Mar-31 00:32 UTC. Time now 2015-Mar-31 06:40 UTC.
Position N 39°23' W 009°44'.

MMSI: 279073176.

Date/timePositionNaut miles runAvg speedWind from/ knotsBaromVisibWave heightAir tempDewpointWater temp
2015-Mar-31 00:32N 39°23' W 009°44'11 8.2
2015-Mar-30 23:09N 39°11' W 009°46'5 8.5
2015-Mar-30 22:32N 39°06' W 009°47'18 8.3
2015-Mar-30 20:25N 38°49' W 009°50'7 8.4
2015-Mar-30 19:32N 38°41' W 009°50'8 8.1
2015-Mar-30 18:29N 38°33' W 009°50'8 8.3
2015-Mar-30 17:33N 38°25' W 009°50'9 8.3
2015-Mar-30 16:28N 38°16' W 009°50'10 8.3
2015-Mar-30 15:16N 38°06' W 009°49'6 8.1
2015-Mar-30 14:33N 38°00' W 009°48'9 7.3
2015-Mar-30 13:18N 37°51' W 009°48'6 7.4
2015-Mar-30 12:33N 37°46' W 009°47'16 7.2
2015-Mar-30 10:23N 37°30' W 009°47'9 7.0
2015-Mar-30 09:06N 37°21' W 009°46'4 6.9
2015-Mar-30 08:33N 37°17' W 009°45'7 6.8
2015-Mar-30 07:33N 37°11' W 009°45'7 6.4
2015-Mar-30 06:31N 37°04' W 009°45'6 6.0
2015-Mar-30 05:31N 36°58' W 009°45'7 6.1
2015-Mar-30 04:24N 36°51' W 009°45'5 6.0
2015-Mar-30 03:33N 36°46' W 009°44'7 6.6
2015-Mar-30 02:33N 36°40' W 009°44'7 6.6
2015-Mar-30 01:33N 36°33' W 009°44'6 6.4
2015-Mar-30 00:33N 36°27' W 009°43'6 6.3
2015-Mar-29 23:33N 36°20' W 009°43'7 6.2
2015-Mar-29 22:21N 36°13' W 009°42'6 6.2
2015-Mar-29 21:22N 36°07' W 009°42'6 6.5
2015-Mar-29 20:29N 36°01' W 009°42'35 7.0
2015-Mar-29 15:32N 35°27' W 009°40'  
2015-Mar-23 22:22N 36°11' W 005°25'0 0.0
2015-Mar-23 08:28N 36°11' W 005°25'0 0.0
2015-Mar-23 07:22N 36°11' W 005°25'0 0.0
2015-Mar-23 05:16N 36°11' W 005°25'0 0.0
2015-Mar-22 23:16N 36°11' W 005°25'0 0.0
2015-Mar-22 22:04N 36°11' W 005°25'0 0.0
2015-Mar-22 20:04N 36°11' W 005°25'0 0.0
2015-Mar-22 18:28N 36°11' W 005°25'0 0.0
2015-Mar-22 08:10N 36°10' W 005°25'5 5.5
2015-Mar-22 07:17N 36°05' W 005°25'0 0.0
2015-Mar-22 06:29N 36°05' W 005°25'0 0.0
2015-Mar-22 05:26N 36°05' W 005°25'0 0.1
2015-Mar-22 04:26N 36°05' W 005°25'0 0.0
2015-Mar-22 03:32N 36°05' W 005°25'0 0.0
2015-Mar-22 02:05N 36°05' W 005°25'0 0.0
2015-Mar-22 01:26N 36°05' W 005°25'0 0.1
2015-Mar-22 00:14N 36°05' W 005°25'0 0.0
2015-Mar-21 19:32N 36°05' W 005°25'0 0.0
2015-Mar-21 18:32N 36°05' W 005°25'0 0.0
2015-Mar-21 15:32N 36°05' W 005°25'0 0.0
2015-Mar-21 08:26N 36°05' W 005°25'0 0.0
2015-Mar-21 06:26N 36°05' W 005°25'0 0.0
2015-Mar-21 05:32N 36°05' W 005°25'  

Dump ship's entire track history